createdAt,value
2018-04-22T00:00:53.267Z,13.77
2018-04-22T00:02:00.502Z,12.80
2018-04-22T00:03:06.571Z,12.82
2018-04-22T00:04:13.553Z,11.18
2018-04-22T00:05:19.819Z,11.77
2018-04-22T00:06:26.139Z,12.43
2018-04-22T00:07:33.829Z,11.23
2018-04-22T00:08:41.689Z,12.07
2018-04-22T00:09:47.989Z,12.13
2018-04-22T00:10:53.952Z,12.48
2018-04-22T00:12:01.194Z,12.05
2018-04-22T00:13:08.315Z,11.93
2018-04-22T00:14:14.716Z,12.18
2018-04-22T00:15:21.386Z,12.82
2018-04-22T00:16:27.930Z,13.15
2018-04-22T00:17:36.345Z,12.50
2018-04-22T00:18:42.649Z,10.98
2018-04-22T00:19:48.967Z,12.98
2018-04-22T00:20:55.449Z,12.48
2018-04-22T00:22:01.765Z,12.02
2018-04-22T00:23:10.155Z,13.75
2018-04-22T00:24:17.203Z,12.20
2018-04-22T00:25:24.486Z,14.23
2018-04-22T00:26:30.775Z,14.45
2018-04-22T00:27:37.058Z,12.88
2018-04-22T00:28:43.321Z,13.62
2018-04-22T00:29:49.935Z,14.25
2018-04-22T00:30:56.252Z,13.80
2018-04-22T00:32:02.561Z,13.55
2018-04-22T00:33:08.924Z,13.00
2018-04-22T00:34:15.418Z,13.68
2018-04-22T00:35:21.687Z,14.57
2018-04-22T00:36:33.206Z,14.82
2018-04-22T00:37:39.274Z,13.70
2018-04-22T00:38:48.424Z,14.30
2018-04-22T00:39:54.635Z,13.32
2018-04-22T00:41:00.953Z,13.40
2018-04-22T00:42:07.271Z,13.85
2018-04-22T00:43:13.278Z,14.70
2018-04-22T00:44:19.554Z,13.73
2018-04-22T00:45:27.084Z,13.88
2018-04-22T00:46:34.127Z,14.77
2018-04-22T00:47:40.866Z,14.75
2018-04-22T00:48:47.418Z,15.20
2018-04-22T00:49:53.667Z,13.65
2018-04-22T00:50:59.674Z,14.60
2018-04-22T00:52:05.521Z,15.50
2018-04-22T00:53:11.602Z,15.00
2018-04-22T00:54:24.023Z,15.00
2018-04-22T00:55:30.243Z,14.52
2018-04-22T00:56:36.470Z,15.02
2018-04-22T00:57:42.798Z,14.82
2018-04-22T00:58:49.678Z,14.63
2018-04-22T00:59:56.075Z,14.60
2018-04-22T01:01:05.408Z,16.50
2018-04-22T01:02:11.841Z,14.50
2018-04-22T01:03:18.767Z,17.25
2018-04-22T01:04:25.068Z,15.85
2018-04-22T01:05:31.243Z,15.90
2018-04-22T01:06:37.135Z,14.00
2018-04-22T01:07:43.401Z,15.32
2018-04-22T01:08:50.479Z,17.30
2018-04-22T01:09:57.899Z,15.73
2018-04-22T01:11:04.100Z,15.30
2018-04-22T01:12:10.133Z,17.60
2018-04-22T01:13:17.363Z,16.40
2018-04-22T01:14:23.596Z,16.70
2018-04-22T01:15:30.803Z,16.95
2018-04-22T01:16:37.643Z,15.88
2018-04-22T01:17:43.686Z,16.00
2018-04-22T01:18:50.112Z,15.48
2018-04-22T01:19:56.287Z,14.93
2018-04-22T01:21:02.279Z,14.63
2018-04-22T01:22:08.280Z,15.15
2018-04-22T01:23:14.538Z,16.35
2018-04-22T01:24:20.547Z,15.80
2018-04-22T01:25:28.878Z,15.77
2018-04-22T01:26:37.816Z,15.68
2018-04-22T01:27:44.056Z,16.10
2018-04-22T01:28:49.984Z,17.95
2018-04-22T01:29:57.200Z,15.52
2018-04-22T01:31:03.561Z,15.13
2018-04-22T01:32:09.814Z,15.27
2018-04-22T01:33:16.145Z,16.75
2018-04-22T01:34:22.411Z,16.55
2018-04-22T01:35:28.963Z,16.37
2018-04-22T01:36:34.866Z,14.60
2018-04-22T01:37:41.153Z,15.57
2018-04-22T01:38:47.412Z,15.55
2018-04-22T01:39:53.875Z,15.43
2018-04-22T01:41:02.125Z,16.25
2018-04-22T01:42:10.342Z,15.65
2018-04-22T01:43:16.655Z,15.57
2018-04-22T01:44:22.598Z,17.37
2018-04-22T01:45:29.233Z,16.70
2018-04-22T01:46:35.204Z,16.35
2018-04-22T01:47:42.121Z,15.60
2018-04-22T01:48:48.411Z,15.75
2018-04-22T01:49:54.368Z,16.35
2018-04-22T01:51:00.604Z,15.65
2018-04-22T01:52:06.885Z,16.60
2018-04-22T01:53:13.152Z,17.42
2018-04-22T01:54:20.304Z,15.80
2018-04-22T01:55:26.691Z,15.60
2018-04-22T01:56:32.951Z,16.75
2018-04-22T01:57:40.127Z,17.00
2018-04-22T01:58:47.264Z,14.95
2018-04-22T01:59:53.414Z,15.95
2018-04-22T02:00:59.442Z,15.13
2018-04-22T02:02:05.757Z,15.15
2018-04-22T02:03:12.056Z,14.38
2018-04-22T02:04:18.107Z,14.82
2018-04-22T02:05:24.313Z,15.05
2018-04-22T02:06:30.965Z,15.45
2018-04-22T02:07:36.911Z,16.17
2018-04-22T02:08:43.235Z,14.25
2018-04-22T02:09:49.528Z,15.15
2018-04-22T02:10:55.851Z,15.80
2018-04-22T02:12:02.083Z,16.05
2018-04-22T02:13:08.031Z,17.85
2018-04-22T02:14:14.290Z,16.02
2018-04-22T02:15:20.363Z,16.15
2018-04-22T02:16:26.378Z,14.45
2018-04-22T02:17:32.675Z,15.50
2018-04-22T02:18:38.715Z,14.40
2018-04-22T02:19:45.000Z,14.95
2018-04-22T02:20:50.851Z,16.17
2018-04-22T02:21:57.099Z,16.20
2018-04-22T02:23:03.331Z,15.75
2018-04-22T02:24:09.675Z,16.02
2018-04-22T02:25:17.328Z,16.23
2018-04-22T02:26:25.147Z,15.65
2018-04-22T02:27:31.443Z,16.02
2018-04-22T02:28:37.652Z,16.12
2018-04-22T02:29:43.979Z,16.02
2018-04-22T02:30:50.277Z,15.45
2018-04-22T02:31:56.458Z,14.60
2018-04-22T02:33:05.303Z,14.43
2018-04-22T02:34:11.804Z,15.52
2018-04-22T02:35:17.774Z,14.15
2018-04-22T02:36:24.087Z,15.73
2018-04-22T02:37:34.459Z,15.35
2018-04-22T02:38:40.734Z,14.43
2018-04-22T02:39:47.032Z,15.07
2018-04-22T02:40:53.323Z,14.73
2018-04-22T02:41:59.831Z,16.55
2018-04-22T02:43:06.069Z,16.12
2018-04-22T02:44:14.530Z,14.13
2018-04-22T02:45:20.932Z,14.10
2018-04-22T02:46:27.883Z,13.98
2018-04-22T02:47:36.126Z,14.20
2018-04-22T02:48:42.246Z,14.18
2018-04-22T02:49:48.580Z,14.48
2018-04-22T02:50:54.832Z,15.73
2018-04-22T02:52:02.756Z,16.67
2018-04-22T02:53:08.992Z,14.77
2018-04-22T02:54:15.348Z,17.10
2018-04-22T02:55:22.161Z,14.93
2018-04-22T02:56:28.857Z,15.52
2018-04-22T02:57:35.175Z,14.55
2018-04-22T02:58:41.483Z,15.77
2018-04-22T02:59:47.799Z,15.20
2018-04-22T03:00:54.996Z,16.73
2018-04-22T03:02:01.238Z,14.20
2018-04-22T03:03:07.528Z,15.15
2018-04-22T03:04:16.334Z,14.98
2018-04-22T03:05:22.839Z,14.87
2018-04-22T03:06:29.332Z,14.40
2018-04-22T03:07:35.532Z,13.98
2018-04-22T03:08:41.792Z,15.13
2018-04-22T03:09:48.093Z,12.57
2018-04-22T03:10:55.304Z,15.13
2018-04-22T03:12:02.275Z,15.32
2018-04-22T03:13:08.549Z,14.98
2018-04-22T03:14:14.559Z,15.13
2018-04-22T03:15:20.856Z,15.10
2018-04-22T03:16:27.065Z,15.50
2018-04-22T03:17:33.084Z,14.68
2018-04-22T03:18:39.427Z,15.98
2018-04-22T03:19:48.540Z,14.65
2018-04-22T03:20:57.231Z,14.90
2018-04-22T03:22:03.599Z,15.60
2018-04-22T03:23:09.844Z,15.98
2018-04-22T03:24:16.056Z,15.70
2018-04-22T03:25:28.158Z,16.12
2018-04-22T03:26:39.135Z,15.20
2018-04-22T03:27:45.430Z,15.43
2018-04-22T03:28:52.645Z,16.42
2018-04-22T03:29:58.996Z,14.93
2018-04-22T03:31:04.962Z,17.20
2018-04-22T03:32:11.186Z,15.00
2018-04-22T03:33:17.503Z,16.15
2018-04-22T03:34:23.824Z,15.85
2018-04-22T03:35:30.159Z,15.00
2018-04-22T03:36:36.460Z,14.13
2018-04-22T03:37:42.763Z,14.87
2018-04-22T03:38:49.979Z,15.32
2018-04-22T03:39:56.332Z,14.73
2018-04-22T03:41:02.593Z,14.65
2018-04-22T03:42:08.800Z,16.00
2018-04-22T03:43:15.080Z,16.50
2018-04-22T03:44:21.363Z,14.90
2018-04-22T03:45:27.685Z,15.10
2018-04-22T03:46:34.048Z,15.18
2018-04-22T03:47:40.254Z,15.57
2018-04-22T03:48:48.228Z,15.45
2018-04-22T03:49:54.443Z,14.95
2018-04-22T03:51:03.275Z,15.05
2018-04-22T03:52:09.533Z,17.20
2018-04-22T03:53:16.643Z,14.18
2018-04-22T03:54:22.871Z,16.20
2018-04-22T03:55:28.888Z,16.23
2018-04-22T03:56:35.180Z,16.02
2018-04-22T03:57:40.818Z,15.65
2018-04-22T03:58:47.964Z,16.12
2018-04-22T03:59:54.245Z,16.60
2018-04-22T04:01:01.127Z,15.75
2018-04-22T04:02:07.342Z,17.25
2018-04-22T04:03:13.631Z,15.60
2018-04-22T04:04:19.675Z,16.73
2018-04-22T04:05:26.445Z,15.23
2018-04-22T04:06:35.795Z,15.20
2018-04-22T04:07:44.417Z,16.80
2018-04-22T04:08:51.204Z,16.58
2018-04-22T04:09:57.246Z,17.02
2018-04-22T04:11:03.471Z,17.02
2018-04-22T04:12:09.791Z,16.58
2018-04-22T04:13:16.136Z,17.85
2018-04-22T04:14:22.390Z,16.05
2018-04-22T04:15:28.651Z,17.27
2018-04-22T04:16:34.924Z,16.67
2018-04-22T04:17:41.434Z,16.23
2018-04-22T04:18:59.457Z,17.95
2018-04-22T04:20:16.727Z,16.95
2018-04-22T04:21:33.874Z,16.23
2018-04-22T04:22:45.457Z,16.20
2018-04-22T04:25:52.042Z,16.58
2018-04-22T04:28:42.705Z,17.65
2018-04-22T04:29:48.885Z,18.05
2018-04-22T04:30:55.663Z,17.15
2018-04-22T04:32:02.839Z,19.55
2018-04-22T04:33:09.095Z,18.40
2018-04-22T04:34:15.975Z,18.85
2018-04-22T04:35:22.291Z,18.95
2018-04-22T04:36:28.513Z,20.27
2018-04-22T04:37:34.727Z,20.42
2018-04-22T04:38:41.058Z,18.62
2018-04-22T04:39:47.357Z,18.50
2018-04-22T04:40:57.909Z,20.25
2018-04-22T04:42:04.200Z,19.80
2018-04-22T04:43:10.504Z,18.33
2018-04-22T04:44:16.972Z,18.65
2018-04-22T04:45:23.259Z,19.35
2018-04-22T04:46:30.156Z,18.12
2018-04-22T04:47:36.043Z,19.83
2018-04-22T04:48:43.182Z,18.58
2018-04-22T04:49:52.056Z,19.98
2018-04-22T04:50:58.273Z,19.00
2018-04-22T04:52:04.578Z,19.42
2018-04-22T04:53:10.584Z,19.17
2018-04-22T04:54:16.706Z,17.60
2018-04-22T04:55:23.162Z,18.60
2018-04-22T04:56:29.270Z,15.88
2018-04-22T04:57:35.759Z,15.20
2018-04-22T04:58:42.571Z,16.30
2018-04-22T04:59:48.639Z,15.63
2018-04-22T05:00:54.874Z,15.80
2018-04-22T05:02:01.086Z,16.87
2018-04-22T05:03:07.394Z,17.98
2018-04-22T05:04:13.693Z,19.15
2018-04-22T05:05:19.941Z,17.20
2018-04-22T05:06:27.259Z,17.33
2018-04-22T05:07:33.286Z,17.23
2018-04-22T05:08:39.567Z,17.33
2018-04-22T05:09:45.861Z,17.10
2018-04-22T05:10:52.114Z,17.17
2018-04-22T05:11:58.426Z,16.27
2018-04-22T05:13:05.117Z,16.87
2018-04-22T05:14:14.947Z,16.35
2018-04-22T05:15:21.176Z,16.80
2018-04-22T05:16:28.455Z,16.95
2018-04-22T05:17:34.770Z,17.42
2018-04-22T05:18:40.844Z,17.73
2018-04-22T05:19:47.111Z,18.00
2018-04-22T05:20:53.433Z,17.27
2018-04-22T05:21:59.772Z,18.10
2018-04-22T05:23:06.019Z,18.00
2018-04-22T05:24:12.326Z,18.02
2018-04-22T05:25:18.643Z,18.50
2018-04-22T05:26:26.067Z,17.65
2018-04-22T05:27:32.707Z,16.87
2018-04-22T05:28:39.004Z,17.40
2018-04-22T05:29:48.066Z,18.77
2018-04-22T05:30:54.873Z,17.52
2018-04-22T05:32:01.879Z,17.25
2018-04-22T05:33:08.092Z,17.05
2018-04-22T05:34:14.391Z,16.90
2018-04-22T05:35:20.650Z,16.60
2018-04-22T05:36:26.910Z,18.15
2018-04-22T05:37:32.942Z,16.67
2018-04-22T05:38:39.219Z,19.92
2018-04-22T05:39:45.491Z,16.83
2018-04-22T05:40:51.710Z,17.52
2018-04-22T05:41:58.052Z,17.00
2018-04-22T05:43:09.841Z,15.65
2018-04-22T05:44:16.089Z,12.07
2018-04-22T05:45:24.367Z,13.50
2018-04-22T05:46:30.587Z,13.50
2018-04-22T05:47:40.134Z,13.15
2018-04-22T05:48:46.457Z,13.23
2018-04-22T05:49:53.002Z,14.75
2018-04-22T05:50:59.298Z,12.25
2018-04-22T05:52:05.535Z,12.37
2018-04-22T05:53:11.783Z,12.43
2018-04-22T05:54:18.005Z,11.38
2018-04-22T05:55:24.319Z,11.98
2018-04-22T05:56:30.532Z,11.43
2018-04-22T05:57:36.863Z,10.48
2018-04-22T05:58:43.150Z,9.98
2018-04-22T05:59:49.463Z,11.68
2018-04-22T06:00:57.779Z,11.70
2018-04-22T06:02:05.096Z,11.43
2018-04-22T06:03:15.161Z,12.40
2018-04-22T06:04:21.556Z,10.40
2018-04-22T06:05:28.380Z,10.10
2018-04-22T06:06:34.628Z,9.68
2018-04-22T06:07:40.962Z,11.15
2018-04-22T06:08:48.030Z,10.00
2018-04-22T06:09:54.279Z,10.57
2018-04-22T06:11:00.557Z,9.80
2018-04-22T06:12:08.463Z,9.95
2018-04-22T06:13:14.750Z,10.35
2018-04-22T06:14:25.355Z,10.23
2018-04-22T06:15:32.513Z,10.65
2018-04-22T06:16:39.056Z,9.50
2018-04-22T06:17:45.645Z,10.40
2018-04-22T06:18:52.480Z,9.60
2018-04-22T06:19:59.919Z,10.13
2018-04-22T06:21:08.343Z,10.23
2018-04-22T06:22:15.342Z,9.48
2018-04-22T06:23:22.022Z,9.95
2018-04-22T06:24:29.730Z,10.85
2018-04-22T06:25:36.484Z,10.50
2018-04-22T06:26:42.750Z,9.98
2018-04-22T06:27:50.212Z,10.07
2018-04-22T06:28:56.910Z,9.10
2018-04-22T06:30:03.203Z,11.18
2018-04-22T06:31:09.553Z,11.10
2018-04-22T06:32:15.894Z,10.77
2018-04-22T06:33:22.307Z,10.73
2018-04-22T06:34:28.652Z,12.00
2018-04-22T06:35:38.512Z,10.90
2018-04-22T06:36:44.857Z,11.02
2018-04-22T06:37:50.644Z,9.82
2018-04-22T06:38:56.924Z,10.60
2018-04-22T06:40:03.489Z,10.85
2018-04-22T06:41:10.262Z,10.98
2018-04-22T06:42:16.771Z,10.68
2018-04-22T06:43:23.101Z,10.38
2018-04-22T06:44:29.524Z,10.55
2018-04-22T06:45:36.061Z,11.52
2018-04-22T06:46:43.069Z,10.48
2018-04-22T06:47:49.287Z,10.13
2018-04-22T06:48:55.495Z,11.12
2018-04-22T06:50:02.174Z,10.40
2018-04-22T06:51:08.827Z,11.25
2018-04-22T06:52:15.752Z,11.77
2018-04-22T06:53:22.616Z,11.25
2018-04-22T06:54:29.085Z,12.07
2018-04-22T06:55:40.498Z,11.75
2018-04-22T06:56:49.258Z,11.57
2018-04-22T06:57:56.313Z,12.40
2018-04-22T06:59:02.839Z,11.50
2018-04-22T07:00:09.069Z,12.18
2018-04-22T07:01:16.274Z,10.02
2018-04-22T07:02:23.074Z,10.57
2018-04-22T07:03:29.720Z,11.68
2018-04-22T07:04:36.355Z,10.80
2018-04-22T07:05:42.647Z,11.80
2018-04-22T07:06:49.163Z,11.93
2018-04-22T07:07:55.883Z,12.37
2018-04-22T07:09:02.374Z,11.50
2018-04-22T07:10:09.739Z,11.10
2018-04-22T07:11:16.355Z,12.18
2018-04-22T07:12:23.080Z,10.80
2018-04-22T07:13:29.593Z,11.32
2018-04-22T07:14:36.209Z,11.15
2018-04-22T07:15:42.452Z,11.35
2018-04-22T07:16:50.048Z,12.30
2018-04-22T07:17:57.245Z,10.98
2018-04-22T07:19:03.813Z,11.68
2018-04-22T07:20:11.355Z,12.20
2018-04-22T07:21:18.156Z,11.65
2018-04-22T07:22:24.694Z,10.98
2018-04-22T07:23:31.694Z,12.05
2018-04-22T07:24:37.729Z,12.45
2018-04-22T07:25:44.654Z,11.07
2018-04-22T07:26:51.186Z,12.27
2018-04-22T07:27:58.913Z,11.98
2018-04-22T07:29:06.044Z,12.55
2018-04-22T07:30:12.782Z,12.00
2018-04-22T07:31:19.588Z,11.95
2018-04-22T07:32:26.337Z,12.43
2018-04-22T07:33:33.339Z,12.10
2018-04-22T07:34:39.958Z,12.93
2018-04-22T07:35:46.794Z,12.82
2018-04-22T07:36:57.879Z,12.20
2018-04-22T07:38:08.555Z,12.55
2018-04-22T07:39:15.134Z,12.45
2018-04-22T07:40:21.691Z,11.55
2018-04-22T07:41:30.053Z,12.23
2018-04-22T07:43:56.242Z,13.35
2018-04-22T07:45:02.571Z,12.63
2018-04-22T07:46:10.881Z,13.00
2018-04-22T07:47:17.915Z,13.95
2018-04-22T07:48:24.431Z,13.00
2018-04-22T07:49:30.745Z,13.00
2018-04-22T07:50:38.176Z,13.35
2018-04-22T07:51:44.417Z,12.70
2018-04-22T07:52:55.794Z,12.70
2018-04-22T07:54:02.183Z,13.32
2018-04-22T07:55:09.596Z,11.85
2018-04-22T07:56:17.995Z,12.55
2018-04-22T07:57:24.875Z,14.35
2018-04-22T07:58:31.395Z,13.27
2018-04-22T07:59:38.355Z,13.27
2018-04-22T08:00:45.883Z,13.82
2018-04-22T08:01:52.978Z,14.40
2018-04-22T08:03:00.695Z,15.75
2018-04-22T08:04:07.196Z,14.40
2018-04-22T08:05:14.003Z,12.60
2018-04-22T08:06:21.001Z,13.93
2018-04-22T08:07:28.357Z,14.30
2018-04-22T08:08:34.776Z,13.93
2018-04-22T08:09:41.069Z,13.25
2018-04-22T08:10:48.328Z,13.95
2018-04-22T08:11:55.828Z,14.02
2018-04-22T08:13:02.448Z,14.45
2018-04-22T08:14:10.571Z,15.43
2018-04-22T08:15:17.126Z,14.55
2018-04-22T08:16:24.638Z,14.43
2018-04-22T08:17:30.958Z,14.40
2018-04-22T08:18:37.904Z,13.62
2018-04-22T08:19:44.728Z,14.50
2018-04-22T08:20:51.247Z,14.55
2018-04-22T08:21:57.998Z,15.35
2018-04-22T08:23:04.192Z,13.52
2018-04-22T08:24:10.433Z,13.95
2018-04-22T08:25:16.735Z,13.60
2018-04-22T08:26:24.481Z,13.60
2018-04-22T08:27:31.684Z,13.25
2018-04-22T08:28:37.939Z,13.30
2018-04-22T08:29:44.229Z,13.85
2018-04-22T08:30:50.551Z,14.10
2018-04-22T08:31:58.666Z,14.18
2018-04-22T08:33:04.863Z,13.05
2018-04-22T08:34:13.382Z,14.02
2018-04-22T08:35:19.951Z,14.10
2018-04-22T08:36:26.467Z,15.07
2018-04-22T08:37:32.757Z,14.90
2018-04-22T08:38:39.047Z,14.32
2018-04-22T08:39:49.209Z,14.18
2018-04-22T08:41:00.059Z,15.35
2018-04-22T08:42:07.907Z,14.10
2018-04-22T08:43:14.164Z,15.60
2018-04-22T08:44:20.450Z,13.32
2018-04-22T08:45:26.735Z,15.23
2018-04-22T08:46:33.051Z,14.75
2018-04-22T08:47:40.420Z,14.87
2018-04-22T08:48:46.638Z,13.65
2018-04-22T08:49:52.904Z,14.93
2018-04-22T08:50:59.279Z,15.70
2018-04-22T08:52:05.568Z,14.87
2018-04-22T08:53:13.671Z,13.68
2018-04-22T08:54:19.873Z,14.00
2018-04-22T08:55:26.307Z,14.30
2018-04-22T08:56:32.603Z,14.48
2018-04-22T08:57:43.315Z,14.38
2018-04-22T08:58:50.208Z,13.43
2018-04-22T08:59:56.459Z,13.10
2018-04-22T09:01:02.673Z,13.82
2018-04-22T09:02:08.930Z,15.68
2018-04-22T09:03:15.504Z,15.52
2018-04-22T09:04:22.050Z,15.45
2018-04-22T09:05:28.319Z,15.43
2018-04-22T09:06:34.633Z,16.45
2018-04-22T09:07:40.882Z,15.15
2018-04-22T09:08:49.540Z,14.77
2018-04-22T09:09:56.005Z,15.48
2018-04-22T09:11:02.267Z,17.20
2018-04-22T09:12:08.585Z,15.57
2018-04-22T09:13:17.013Z,16.98
2018-04-22T09:14:23.230Z,16.60
2018-04-22T09:15:30.513Z,16.80
2018-04-22T09:16:37.796Z,16.48
2018-04-22T09:17:44.991Z,16.80
2018-04-22T09:18:52.262Z,14.40
2018-04-22T09:19:58.540Z,17.15
2018-04-22T09:21:05.533Z,17.25
2018-04-22T09:22:12.619Z,16.05
2018-04-22T09:23:19.087Z,17.85
2018-04-22T09:24:26.411Z,16.70
2018-04-22T09:25:34.794Z,16.10
2018-04-22T09:26:44.761Z,17.62
2018-04-22T09:27:51.532Z,18.60
2018-04-22T09:28:59.303Z,19.42
2018-04-22T09:30:05.874Z,18.62
2018-04-22T09:31:12.332Z,18.87
2018-04-22T09:32:19.302Z,20.05
2018-04-22T09:33:25.729Z,19.92
2018-04-22T09:34:32.082Z,18.37
2018-04-22T09:35:39.275Z,19.27
2018-04-22T09:36:47.577Z,19.35
2018-04-22T09:37:55.120Z,17.70
2018-04-22T09:39:01.713Z,20.25
2018-04-22T09:40:08.718Z,20.35
2018-04-22T09:41:16.464Z,19.65
2018-04-22T09:42:24.258Z,19.98
2018-04-22T09:43:31.440Z,19.02
2018-04-22T09:44:39.800Z,17.73
2018-04-22T09:45:47.789Z,19.50
2018-04-22T09:46:54.733Z,20.40
2018-04-22T09:48:01.625Z,20.45
2018-04-22T09:49:07.926Z,21.30
2018-04-22T09:50:14.834Z,21.62
2018-04-22T09:51:23.043Z,21.62
2018-04-22T09:52:29.715Z,22.08
2018-04-22T09:53:36.940Z,22.23
2018-04-22T09:54:48.079Z,21.02
2018-04-22T09:55:55.697Z,21.75
2018-04-22T09:57:01.975Z,22.17
2018-04-22T09:58:08.307Z,21.08
2018-04-22T09:59:14.614Z,22.00
2018-04-22T10:00:26.973Z,21.10
2018-04-22T10:01:36.580Z,21.58
2018-04-22T10:02:49.336Z,21.60
2018-04-22T10:04:05.426Z,21.30
2018-04-22T10:05:16.270Z,21.50
2018-04-22T10:06:22.552Z,22.05
2018-04-22T10:07:28.886Z,19.23
2018-04-22T10:08:35.194Z,23.08
2018-04-22T10:09:41.486Z,22.37
2018-04-22T10:10:48.465Z,21.58
2018-04-22T10:11:54.746Z,21.60
2018-04-22T10:13:01.988Z,19.85
2018-04-22T10:14:08.302Z,21.27
2018-04-22T10:15:14.567Z,22.90
2018-04-22T10:16:21.406Z,23.60
2018-04-22T10:17:27.743Z,23.50
2018-04-22T10:18:34.061Z,23.90
2018-04-22T10:19:40.348Z,20.88
2018-04-22T10:20:47.893Z,21.25
2018-04-22T10:21:56.041Z,20.48
2018-04-22T10:23:02.719Z,20.60
2018-04-22T10:24:08.987Z,20.60
2018-04-22T10:25:15.843Z,22.55
2018-04-22T10:26:22.111Z,21.50
2018-04-22T10:27:30.892Z,22.70
2018-04-22T10:28:37.607Z,21.30
2018-04-22T10:29:44.707Z,21.60
2018-04-22T10:30:50.989Z,21.85
2018-04-22T10:31:57.228Z,22.60
2018-04-22T10:33:03.481Z,25.30
2018-04-22T10:34:09.787Z,22.80
2018-04-22T10:35:16.014Z,21.73
2018-04-22T10:36:25.316Z,19.85
2018-04-22T10:37:31.550Z,22.05
2018-04-22T10:38:37.774Z,21.35
2018-04-22T10:39:44.091Z,22.23
2018-04-22T10:40:50.391Z,22.40
2018-04-22T10:41:56.619Z,22.48
2018-04-22T10:43:02.907Z,22.15
2018-04-22T10:44:09.149Z,23.02
2018-04-22T10:45:15.427Z,21.33
2018-04-22T10:46:22.356Z,25.33
2018-04-22T10:47:28.273Z,23.15
2018-04-22T10:48:34.607Z,20.80
2018-04-22T10:49:42.188Z,20.33
2018-04-22T10:50:48.467Z,21.67
2018-04-22T10:51:56.149Z,21.40
2018-04-22T10:53:03.559Z,22.98
2018-04-22T10:54:09.964Z,22.15
2018-04-22T10:55:16.226Z,19.70
2018-04-22T10:56:22.823Z,20.20
2018-04-22T10:57:29.207Z,21.65
2018-04-22T10:58:35.494Z,20.00
2018-04-22T10:59:41.826Z,21.50
2018-04-22T11:00:48.088Z,19.12
2018-04-22T11:01:54.307Z,19.95
2018-04-22T11:03:00.571Z,21.40
2018-04-22T11:04:06.771Z,20.45
2018-04-22T11:05:13.064Z,19.17
2018-04-22T11:06:19.586Z,19.45
2018-04-22T11:07:27.642Z,19.45
2018-04-22T11:08:35.647Z,19.23
2018-04-22T11:09:42.804Z,20.85
2018-04-22T11:10:50.045Z,17.35
2018-04-22T11:11:56.230Z,17.95
2018-04-22T11:13:02.469Z,18.62
2018-04-22T11:14:08.405Z,21.23
2018-04-22T11:15:14.679Z,18.98
2018-04-22T11:16:20.869Z,17.27
2018-04-22T11:17:27.194Z,17.80
2018-04-22T11:18:33.556Z,17.67
2018-04-22T11:19:39.634Z,17.50
2018-04-22T11:20:46.644Z,19.73
2018-04-22T11:21:52.959Z,19.40
2018-04-22T11:22:59.296Z,19.30
2018-04-22T11:24:05.951Z,17.80
2018-04-22T11:25:12.174Z,17.90
2018-04-22T11:26:18.407Z,17.25
2018-04-22T11:27:25.468Z,16.48
2018-04-22T11:28:32.884Z,18.30
2018-04-22T11:29:39.033Z,17.30
2018-04-22T11:30:45.289Z,18.15
2018-04-22T11:31:51.607Z,17.58
2018-04-22T11:32:57.624Z,17.63
2018-04-22T11:34:03.757Z,18.77
2018-04-22T11:35:10.015Z,17.52
2018-04-22T11:36:16.245Z,19.85
2018-04-22T11:37:22.578Z,19.05
2018-04-22T11:38:28.860Z,19.12
2018-04-22T11:39:35.211Z,17.95
2018-04-22T11:40:41.487Z,16.70
2018-04-22T11:41:47.823Z,18.35
2018-04-22T11:42:53.828Z,19.03
2018-04-22T11:44:00.756Z,16.13
2018-04-22T11:45:07.047Z,18.48
2018-04-22T11:46:13.968Z,17.35
2018-04-22T11:47:20.390Z,18.37
2018-04-22T11:48:26.728Z,15.35
2018-04-22T11:49:33.045Z,17.90
2018-04-22T11:50:39.023Z,16.80
2018-04-22T11:51:45.352Z,19.10
2018-04-22T11:52:51.647Z,17.52
2018-04-22T11:53:57.721Z,15.53
2018-04-22T11:55:03.811Z,15.00
2018-04-22T11:56:10.312Z,16.00
2018-04-22T11:57:16.877Z,16.43
2018-04-22T11:58:23.300Z,17.77
2018-04-22T11:59:31.715Z,17.97
2018-04-22T12:00:38.710Z,17.20
2018-04-22T12:01:44.711Z,17.13
2018-04-22T12:02:50.696Z,16.93
2018-04-22T12:03:56.359Z,17.30
2018-04-22T12:05:02.333Z,16.13
2018-04-22T12:06:08.641Z,17.80
2018-04-22T12:07:14.638Z,15.93
2018-04-22T12:08:20.618Z,14.07
2018-04-22T12:09:26.673Z,13.80
2018-04-22T12:10:33.398Z,12.60
2018-04-22T12:11:39.362Z,13.30
2018-04-22T12:12:45.254Z,15.37
2018-04-22T12:13:51.308Z,13.50
2018-04-22T12:14:57.402Z,16.23
2018-04-22T12:16:04.214Z,16.00
2018-04-22T12:17:10.306Z,14.23
2018-04-22T12:18:16.327Z,14.27
2018-04-22T12:19:22.663Z,12.70
2018-04-22T12:20:29.393Z,12.60
2018-04-22T12:21:35.898Z,12.05
2018-04-22T12:22:41.862Z,12.30
2018-04-22T12:23:48.195Z,11.68
2018-04-22T12:24:54.198Z,13.00
2018-04-22T12:26:00.726Z,14.73
2018-04-22T12:27:06.703Z,12.20
2018-04-22T12:28:12.707Z,15.50
2018-04-22T12:29:18.729Z,15.57
2018-04-22T12:30:24.761Z,15.70
2018-04-22T12:31:30.735Z,16.47
2018-04-22T12:32:37.029Z,15.68
2018-04-22T12:33:43.028Z,15.13
2018-04-22T12:34:49.265Z,14.60
2018-04-22T12:35:55.861Z,15.40
2018-04-22T12:37:03.815Z,14.73
2018-04-22T12:38:09.823Z,13.27
2018-04-22T12:39:15.834Z,13.00
2018-04-22T12:40:23.592Z,14.70
2018-04-22T12:41:29.717Z,15.03
2018-04-22T12:42:35.682Z,12.27
2018-04-22T12:43:41.701Z,13.20
2018-04-22T12:44:47.733Z,14.40
2018-04-22T12:45:53.710Z,14.57
2018-04-22T12:47:00.011Z,16.48
2018-04-22T12:48:05.700Z,14.00
2018-04-22T12:49:11.751Z,16.87
2018-04-22T12:50:18.047Z,15.32
2018-04-22T12:51:26.113Z,14.82
2018-04-22T12:52:34.099Z,16.30
2018-04-22T12:53:40.049Z,15.15
2018-04-22T12:54:46.368Z,13.23
2018-04-22T12:55:52.394Z,15.57
2018-04-22T12:56:58.910Z,16.40
2018-04-22T12:58:04.866Z,19.47
2018-04-22T12:59:10.870Z,16.90
2018-04-22T13:00:16.911Z,17.87
2018-04-22T13:01:22.986Z,15.60
2018-04-22T13:02:28.871Z,15.73
2018-04-22T13:03:34.876Z,16.43
2018-04-22T13:04:40.781Z,16.97
2018-04-22T13:05:46.833Z,17.03
2018-04-22T13:06:52.913Z,15.50
2018-04-22T13:07:59.132Z,17.30
2018-04-22T13:09:04.178Z,14.37
2018-04-22T13:10:11.049Z,16.47
2018-04-22T13:11:17.020Z,15.23
2018-04-22T13:12:26.434Z,17.10
2018-04-22T13:13:32.330Z,17.17
2018-04-22T13:14:38.362Z,17.07
2018-04-22T13:15:44.377Z,16.93
2018-04-22T13:16:50.638Z,17.52
2018-04-22T13:17:56.662Z,16.70
2018-04-22T13:19:02.672Z,17.00
2018-04-22T13:20:08.679Z,15.10
2018-04-22T13:21:14.677Z,14.07
2018-04-22T13:22:20.623Z,16.10
2018-04-22T13:23:26.600Z,14.63
2018-04-22T13:24:32.664Z,14.60
2018-04-22T13:25:38.597Z,15.80
2018-04-22T13:26:44.590Z,16.90
2018-04-22T13:27:55.551Z,15.83
2018-04-22T13:29:01.468Z,14.50
2018-04-22T13:30:07.427Z,14.87
2018-04-22T13:31:13.391Z,15.87
2018-04-22T13:32:19.417Z,14.77
2018-04-22T13:33:25.430Z,13.20
2018-04-22T13:34:31.469Z,14.43
2018-04-22T13:35:38.036Z,13.20
2018-04-22T13:36:43.747Z,14.73
2018-04-22T13:37:49.750Z,14.50
2018-04-22T13:38:55.773Z,15.30
2018-04-22T13:40:01.813Z,13.70
2018-04-22T13:41:08.214Z,14.13
2018-04-22T13:42:14.480Z,14.52
2018-04-22T13:43:21.258Z,11.63
2018-04-22T13:44:28.663Z,13.57
2018-04-22T13:45:34.663Z,13.40
2018-04-22T13:46:40.688Z,14.47
2018-04-22T13:47:46.702Z,14.63
2018-04-22T13:48:52.691Z,15.23
2018-04-22T13:49:58.975Z,12.45
2018-04-22T13:51:05.861Z,13.17
2018-04-22T13:52:11.526Z,12.07
2018-04-22T13:53:17.179Z,12.83
2018-04-22T13:54:23.432Z,13.25
2018-04-22T13:55:29.611Z,12.20
2018-04-22T13:56:35.659Z,11.90
2018-04-22T13:57:41.395Z,12.90
2018-04-22T13:58:47.550Z,14.07
2018-04-22T13:59:55.362Z,11.10
2018-04-22T14:01:01.407Z,12.67
2018-04-22T14:02:07.404Z,13.00
2018-04-22T14:03:13.408Z,12.77
2018-04-22T14:04:19.632Z,11.70
2018-04-22T14:05:25.770Z,12.73
2018-04-22T14:06:31.762Z,13.13
2018-04-22T14:07:37.891Z,11.90
2018-04-22T14:08:44.239Z,11.60
2018-04-22T14:09:50.171Z,10.50
2018-04-22T14:10:56.280Z,12.53
2018-04-22T14:12:03.281Z,14.43
2018-04-22T14:13:09.413Z,13.27
2018-04-22T14:14:15.725Z,13.43
2018-04-22T14:15:21.717Z,14.37
2018-04-22T14:16:28.056Z,12.40
2018-04-22T14:17:34.037Z,11.60
2018-04-22T14:18:40.040Z,12.47
2018-04-22T14:19:51.521Z,13.20
2018-04-22T14:21:02.444Z,11.80
2018-04-22T14:22:09.037Z,13.77
2018-04-22T14:23:16.178Z,11.80
2018-04-22T14:24:23.255Z,12.50
2018-04-22T14:25:31.963Z,12.20
2018-04-22T14:26:39.280Z,12.13